Flight Track Log - Related Links

Times and Time Zones

All times are in EDT time to prevent confusion due to time zone crossing. See the DLH423 flight status page for this flight to view local times or setup timezone preferences in your user account.

Time Position Orientation Groundspeed Altitude Reporting Facility
EDT Latitude Longitude Course Direction KTS MPH feet Rate Location/Type
Mon 05:11:32 PM 42.4460 -70.9370 75° East 228 262 2,000  Level FlightAware ADS-B
Mon 05:12:07 PM 42.4550 -70.8840 77° East 241 277 2,800 1,200 Climbing FlightAware ADS-B
Mon 05:12:32 PM 42.4580 -70.8510 83° East 241 277 3,200 840 Climbing FlightAware ADS-B
Mon 05:12:57 PM 42.4480 -70.8160 111° Southeast 238 274 3,500 1,200 Climbing FlightAware ADS-B
Mon 05:13:32 PM 42.4310 -70.7710 117° Southeast 235 270 4,400 1,500 Climbing FlightAware ADS-B
Mon 05:13:57 PM 42.4200 -70.7410 116° Southeast 235 270 5,000 1,745 Climbing FlightAware ADS-B
Mon 05:14:27 PM 42.4040 -70.6980 117° Southeast 244 281 6,000 2,291 Climbing FlightAware ADS-B
Mon 05:14:52 PM 42.3920 -70.6640 116° Southeast 248 285 7,100 2,618 Climbing FlightAware ADS-B
Mon 05:15:22 PM 42.3750 -70.6170 116° Southeast 261 300 8,400 2,400 Climbing FlightAware ADS-B
Mon 05:15:47 PM 42.3670 -70.5800 106° East 267 307 9,300 1,629 Climbing FlightAware ADS-B
Mon 05:16:32 PM 42.3490 -70.4980 107° East 311 358 10,300 1,059 Climbing FlightAware ADS-B
Mon 05:17:12 PM 42.3330 -70.4200 105° East 350 403 10,800 884 Climbing FlightAware ADS-B
Mon 05:18:07 PM 42.3090 -70.3020 105° East 365 420 11,700 1,920 Climbing FlightAware ADS-B
Mon 05:18:52 PM 42.2860 -70.1940 106° East 384 442 14,000 2,471 Climbing FlightAware ADS-B
Mon 05:19:32 PM 42.2660 -70.0990 106° East 396 456 15,200 1,768 Climbing FlightAware ADS-B
Mon 05:20:27 PM 42.2490 -69.9710 100° East 407 468 16,800 1,680 Climbing FlightAware ADS-B
Mon 05:21:12 PM 42.2360 -69.8580 99° East 412 474 18,000 1,714 Climbing FlightAware ADS-B
Mon 05:21:37 PM 42.2500 -69.7850 75° East 426 490 18,800 1,700 Climbing FlightAware ADS-B
Mon 05:22:12 PM 42.2880 -69.7060 57° Northeast 434 499 19,700 1,553 Climbing FlightAware ADS-B
Mon 05:23:02 PM 42.3420 -69.5980 56° Northeast 442 509 21,000 1,074 Climbing FlightAware ADS-B
Mon 05:23:47 PM 42.3920 -69.4950 57° Northeast 446 513 21,400 1,200 Climbing FlightAware ADS-B
Mon 05:24:27 PM 42.4430 -69.3910 56° Northeast 469 540 22,700 1,950 Climbing FlightAware ADS-B
Mon 05:25:07 PM 42.4910 -69.2930 56° Northeast 467 537 24,000 1,725 Climbing FlightAware ADS-B
Mon 05:25:47 PM 42.5360 -69.2010 56° Northeast 470 541 25,000 1,341 Climbing FlightAware ADS-B
Mon 05:26:32 PM 42.5900 -69.0890 57° Northeast 479 551 25,900 1,128 Climbing FlightAware ADS-B
Mon 05:29:57 PM 42.8640 -68.5250 56° Northeast 539 620 29,700 1,200 Climbing FlightAware ADS-B
Mon 05:30:37 PM 42.9250 -68.4130 53° Northeast 544 626 30,800 1,418 Climbing FlightAware ADS-B
Mon 05:31:47 PM 43.0300 -68.2200 53° Northeast 553 636 32,300 873 Climbing FlightAware ADS-B
Mon 05:32:27 PM 43.0810 -68.1230 54° Northeast 553 636 32,400 75 Climbing FlightAware ADS-B
Mon 05:33:07 PM 43.1330 -68.0260 54° Northeast 553 636 32,400 1,650 Level FlightAware ADS-B
Mon 05:33:47 PM 43.2190 -67.8680 53° Northeast 574 661 34,600 2,259 Climbing FlightAware ADS-B
Mon 05:34:32 PM 43.2890 -67.7370 54° Northeast 574 661 35,600 1,129 Climbing FlightAware ADS-B
Mon 05:35:12 PM 43.3500 -67.6200 54° Northeast 576 663 36,200 900 Climbing FlightAware ADS-B
Mon 05:35:52 PM 43.4140 -67.5010 53° Northeast 578 665 36,800 565 Climbing FlightAware ADS-B
Mon 05:36:37 PM 43.4830 -67.3690 54° Northeast 582 670 37,000 141 Climbing FlightAware ADS-B
Mon 05:37:17 PM 43.5500 -67.2410 54° Northeast 585 673 37,000  Level FlightAware ADS-B
Mon 05:38:02 PM 43.6180 -67.1110 54° Northeast 583 671 37,000  Level FlightAware ADS-B
Mon 05:38:37 PM 43.6750 -67.0020 54° Northeast 581 669 37,000  Level FlightAware ADS-B
Mon 05:39:27 PM 43.7530 -66.8510 54° Northeast 582 670 37,000  Level FlightAware ADS-B
Mon 05:40:07 PM 43.8160 -66.7290 54° Northeast 584 672 37,000  Level FlightAware ADS-B
Mon 05:40:47 PM 43.8770 -66.6090 55° Northeast 586 674 37,000  Level FlightAware ADS-B
Mon 05:41:22 PM 43.9320 -66.5010 55° Northeast 591 680 37,000  Level FlightAware ADS-B
Mon 05:42:12 PM 44.0130 -66.3420 55° Northeast 595 685 37,000  Level FlightAware ADS-B
Mon 05:45:32 PM 44.3210 -65.7290 55° Northeast 595 685 37,000  Level FlightAware ADS-B
Mon 05:46:32 PM 44.4150 -65.5390 55° Northeast 591 680 37,000  Level FlightAware ADS-B
Mon 05:47:07 PM 44.4680 -65.4300 56° Northeast 584 672 37,000  Level FlightAware ADS-B
Mon 05:47:52 PM 44.5350 -65.2940 55° Northeast 586 674 37,000  Level FlightAware ADS-B
Mon 05:48:52 PM 44.6300 -65.0990 56° Northeast 590 679 37,000  Level FlightAware ADS-B
Mon 05:49:32 PM 44.6910 -64.9680 57° Northeast 593 682 37,000  Level FlightAware ADS-B
Mon 05:50:12 PM 44.7510 -64.8390 57° Northeast 593 682 37,000  Level FlightAware ADS-B
Mon 05:50:57 PM 44.8170 -64.6970 57° Northeast 595 685 37,000  Level FlightAware ADS-B
Mon 05:51:32 PM 44.8660 -64.5920 57° Northeast 594 684 37,000  Level FlightAware ADS-B
Mon 05:52:17 PM 44.9420 -64.4250 57° Northeast 589 678 37,000  Level FlightAware ADS-B
Mon 05:53:02 PM 45.0070 -64.2830 57° Northeast 592 681 37,000  Level FlightAware ADS-B
Mon 05:53:42 PM 45.0660 -64.1530 57° Northeast 596 686 37,000  Level FlightAware ADS-B
Mon 05:54:37 PM 45.1460 -63.9770 57° Northeast 597 687 37,000  Level FlightAware ADS-B
Mon 05:55:32 PM 45.2310 -63.7900 57° Northeast 594 684 37,000  Level FlightAware ADS-B
Mon 05:56:27 PM 45.3070 -63.6180 58° Northeast 593 682 37,000  Level FlightAware ADS-B
Mon 05:57:27 PM 45.3940 -63.4220 58° Northeast 593 682 37,000  Level FlightAware ADS-B
Mon 05:58:12 PM 45.4520 -63.2900 58° Northeast 593 682 37,000  Level FlightAware ADS-B
Mon 05:58:52 PM 45.5020 -63.1770 58° Northeast 593 682 37,000  Level FlightAware ADS-B
Mon 05:59:32 PM 45.5510 -63.0640 58° Northeast 593 682 37,000  Level FlightAware ADS-B
Mon 06:00:12 PM 45.6010 -62.9510 58° Northeast 593 682 37,000  Level FlightAware ADS-B
Mon 06:00:52 PM 45.6500 -62.8380 58° Northeast 593 682 37,000  Level FlightAware ADS-B
Mon 06:01:42 PM 45.7120 -62.6960 58° Northeast 593 682 37,000  Level FlightAware ADS-B
Mon 06:04:32 PM 45.9220 -62.2140 58° Northeast 593 682 37,000  Level FlightAware ADS-B
Mon 06:05:17 PM 46.0650 -61.8640 59° Northeast 579 666 37,000  Level FlightAware ADS-B
Mon 06:06:02 PM 46.1280 -61.7130 59° Northeast 575 662 37,000  Level FlightAware ADS-B
Mon 06:10:12 PM 46.4640 -60.8950 59° Northeast 562 647 37,000  Level FlightAware ADS-B
Mon 06:10:52 PM 46.5160 -60.7670 59° Northeast 557 641 37,000  Level FlightAware ADS-B
Mon 06:11:37 PM 46.5730 -60.6230 60° Northeast 552 635 37,000  Level FlightAware ADS-B
Mon 06:12:17 PM 46.6240 -60.4960 60° Northeast 551 634 37,000  Level FlightAware ADS-B
Mon 06:13:02 PM 46.6820 -60.3500 60° Northeast 550 633 37,000  Level FlightAware ADS-B
Mon 06:13:42 PM 46.7330 -60.2220 60° Northeast 553 636 37,000  Level FlightAware ADS-B
Mon 06:14:22 PM 46.7840 -60.0920 60° Northeast 552 635 37,000  Level FlightAware ADS-B
Mon 06:15:07 PM 46.8390 -59.9520 60° Northeast 549 632 37,000  Level FlightAware ADS-B
Mon 06:15:47 PM 46.8890 -59.8230 60° Northeast 544 626 37,000  Level FlightAware ADS-B
Mon 06:16:27 PM 46.9390 -59.6960 60° Northeast 541 623 37,000  Level FlightAware ADS-B
Mon 06:17:12 PM 46.9960 -59.5470 61° Northeast 541 623 37,000  Level FlightAware ADS-B
Mon 06:17:52 PM 47.0440 -59.4230 60° Northeast 541 623 37,000  Level FlightAware ADS-B
Mon 06:18:37 PM 47.0980 -59.2830 60° Northeast 539 620 37,000  Level FlightAware ADS-B
Mon 06:19:17 PM 47.1470 -59.1540 61° Northeast 539 620 37,000  Level FlightAware ADS-B
Mon 06:20:02 PM 47.2030 -59.0050 61° Northeast 537 618 37,000  Level FlightAware ADS-B
Mon 06:20:42 PM 47.2490 -58.8810 61° Northeast 535 616 37,000  Level FlightAware ADS-B
Mon 06:21:22 PM 47.2980 -58.7530 61° Northeast 529 609 37,000  Level FlightAware ADS-B
Mon 06:22:07 PM 47.3490 -58.6140 62° Northeast 528 608 37,000  Level FlightAware ADS-B
Mon 06:22:47 PM 47.3970 -58.4860 61° Northeast 531 611 37,000  Level FlightAware ADS-B
Mon 06:23:37 PM 47.4510 -58.3410 61° Northeast 531 611 37,000  Level FlightAware ADS-B
Mon 06:24:27 PM 47.5010 -58.2060 61° Northeast 531 611 37,000  Level FlightAware ADS-B
Mon 06:28:37 PM 47.7540 -57.5290 61° Northeast 531 611 37,000  Level FlightAware ADS-B
Mon 06:29:17 PM 47.8380 -57.2530 66° East 519 597 37,000  Level FlightAware ADS-B
Mon 06:29:57 PM 47.8830 -57.1240 62° Northeast 521 600 37,000  Level FlightAware ADS-B
Mon 06:30:52 PM 47.9440 -56.9450 63° Northeast 522 601 37,000  Level FlightAware ADS-B
Mon 06:31:27 PM 47.9780 -56.8440 63° Northeast 524 603 37,000  Level FlightAware ADS-B
Mon 06:32:07 PM 48.0230 -56.7090 63° Northeast 525 604 37,000  Level FlightAware ADS-B
Mon 06:33:02 PM 48.0820 -56.5320 63° Northeast 525 604 37,000  Level FlightAware ADS-B
Mon 06:37:47 PM 48.3760 -55.6390 63° Northeast 516 594 37,000  Level FlightAware ADS-B
Mon 06:38:17 PM 48.4030 -55.5560 64° Northeast 516 594 37,000  Level FlightAware ADS-B
Mon 06:39:07 PM 48.4470 -55.4190 64° Northeast 516 594 37,000  Level FlightAware ADS-B
Mon 06:39:47 PM 48.5100 -55.2200 64° Northeast 523 602 37,000  Level FlightAware ADS-B
Mon 06:42:42 PM 48.6830 -54.6690 64° Northeast 518 596 37,000  Level FlightAware ADS-B
Mon 06:43:37 PM 48.7430 -54.4740 65° Northeast 518 596 37,000  Level FlightAware ADS-B
Mon 06:44:17 PM 48.7870 -54.3320 65° Northeast 520 598 37,000  Level FlightAware ADS-B
Mon 06:45:02 PM 48.8330 -54.1810 65° Northeast 521 600 37,000  Level FlightAware ADS-B
Mon 06:46:12 PM 48.9030 -53.9480 65° Northeast 521 600 37,000  Level FlightAware ADS-B
Mon 06:47:22 PM 48.9730 -53.7150 65° Northeast 525 604 37,000  Level FlightAware ADS-B
Mon 06:48:47 PM 49.0590 -53.4230 66° East 524 603 37,000  Level FlightAware ADS-B
Mon 06:49:57 PM 49.1290 -53.1880 65° Northeast 522 601 37,000  Level FlightAware ADS-B
Mon 06:51:07 PM 49.1940 -52.9620 66° East 520 598 37,000  Level FlightAware ADS-B
Mon 06:52:37 PM 49.2780 -52.6720 66° East 516 594 37,000  Level FlightAware ADS-B
Mon 06:53:27 PM 49.3300 -52.4880 66° East 509 586 37,000  Level FlightAware ADS-B
Mon 06:53:57 PM 49.3580 -52.3890 66° East 507 583 37,000  Level FlightAware ADS-B
Mon 06:54:52 PM 49.4090 -52.2100 66° East 510 587 37,000  Level FlightAware ADS-B
Mon 06:55:32 PM 49.4460 -52.0760 67° East 508 585 37,000  Level FlightAware ADS-B
Mon 06:56:12 PM 49.4830 -51.9430 67° East 505 581 37,000  Level FlightAware ADS-B
Mon 06:56:57 PM 49.5260 -51.7890 67° East 505 581 37,000  Level FlightAware ADS-B
Mon 06:57:32 PM 49.5560 -51.6770 68° East 506 582 37,000  Level FlightAware ADS-B
Mon 06:58:17 PM 49.5980 -51.5240 67° East 511 588 37,000 387 Level FlightAware ADS-B
Mon 07:00:07 PM 49.6930 -51.1720 67° East 506 582 38,000 324 Climbing FlightAware ADS-B
Mon 07:01:22 PM 49.7590 -50.9270 67° East 507 583 38,000  Level FlightAware ADS-B
Mon 07:02:02 PM 49.7910 -50.8130 66° East 507 583 38,000  Level FlightAware ADS-B
Mon 07:02:42 PM 49.8220 -50.6990 67° East 507 583 38,000  Level FlightAware ADS-B
Mon 07:03:22 PM 49.8530 -50.5850 67° East 507 583 38,000  Level FlightAware ADS-B
Mon 07:04:12 PM 49.8920 -50.4430 67° East 507 583 38,000  Level FlightAware ADS-B
Mon 07:04:52 PM 49.9230 -50.3290 67° East 507 583 38,000  Level FlightAware ADS-B
Mon 07:05:32 PM 49.9540 -50.2150 67° East 507 583 38,000  Level FlightAware ADS-B
Mon 07:06:12 PM 49.9850 -50.1010 67° East 507 583 38,000  Level FlightAware ADS-B
Mon 07:06:52 PM 50.0160 -49.9870 67° East 507 583 38,000  Level FlightAware ADS-B
Mon 07:07:42 PM 50.0550 -49.8440 67° East 507 583 38,000  Level FlightAware ADS-B
Mon 07:08:22 PM 50.0860 -49.7290 67° East 507 583 38,000  Level FlightAware ADS-B
Mon 07:09:02 PM 50.1180 -49.6150 66° East 507 583 38,000  Level FlightAware ADS-B
Mon 07:09:42 PM 50.1490 -49.5000 67° East 507 583 38,000  Level FlightAware ADS-B
Mon 07:10:22 PM 50.1800 -49.3860 67° East 507 583 38,000  Level FlightAware ADS-B
Mon 07:10:50 PM 50.2333 -48.9000 67° East 520 598 38,000  Level Gander Center
Mon 07:11:19 PM 50.2667 -48.8000 62° Northeast 510 587 38,000  Level Gander Center
Mon 07:12:19 PM 50.3167 -48.6000 69° East 510 587 38,000  Level Gander Center
Mon 07:13:19 PM 50.3500 -48.4000 75° East 510 587 38,000  Level Gander Center
Mon 07:14:19 PM 50.4167 -48.2000 62° Northeast 510 587 38,000  Level Gander Center
Mon 07:14:50 PM 50.4333 -48.0500 80° East 510 587 38,000  Level Gander Center
Mon 07:17:00 PM 50.5204 -47.7022 68° East  Level FlightAware Approximate
Mon 07:24:00 PM 50.8697 -46.2409 71° East  Level FlightAware Approximate
Mon 07:25:00 PM 50.9146 -46.0285 71° East  Level FlightAware Approximate
Mon 07:26:00 PM 50.9592 -45.8158 72° East  Level FlightAware Approximate
Mon 07:27:00 PM 51.0033 -45.6026 72° East  Level FlightAware Approximate
Mon 07:28:00 PM 51.0471 -45.3890 72° East  Level FlightAware Approximate
Mon 07:29:00 PM 51.0905 -45.1749 72° East  Level FlightAware Approximate
Mon 07:30:00 PM 51.1335 -44.9605 72° East  Level FlightAware Approximate
Mon 07:31:00 PM 51.1761 -44.7457 72° East  Level FlightAware Approximate
Mon 07:32:00 PM 51.2183 -44.5305 73° East  Level FlightAware Approximate
Mon 07:33:00 PM 51.2601 -44.3149 73° East  Level FlightAware Approximate
Mon 07:34:00 PM 51.3015 -44.0990 73° East  Level FlightAware Approximate
Mon 07:35:00 PM 51.3425 -43.8826 73° East  Level FlightAware Approximate
Mon 07:36:00 PM 51.3832 -43.6658 73° East  Level FlightAware Approximate
Mon 07:37:00 PM 51.4234 -43.4487 73° East  Level FlightAware Approximate
Mon 07:38:00 PM 51.4632 -43.2312 74° East  Level FlightAware Approximate
Mon 07:39:00 PM 51.5026 -43.0133 74° East  Level FlightAware Approximate
Mon 07:40:00 PM 51.5416 -42.7950 74° East  Level FlightAware Approximate
Mon 07:41:00 PM 51.5802 -42.5764 74° East  Level FlightAware Approximate
Mon 07:42:00 PM 51.6184 -42.3573 74° East  Level FlightAware Approximate
Mon 07:43:00 PM 51.6562 -42.1380 74° East  Level FlightAware Approximate
Mon 07:44:00 PM 51.6936 -41.9182 75° East  Level FlightAware Approximate
Mon 07:45:00 PM 51.7305 -41.6981 75° East  Level FlightAware Approximate
Mon 07:46:00 PM 51.7671 -41.4776 75° East  Level FlightAware Approximate
Mon 07:47:00 PM 51.8032 -41.2568 75° East  Level FlightAware Approximate
Mon 07:48:00 PM 51.8390 -41.0356 75° East  Level FlightAware Approximate
Mon 07:49:00 PM 51.8743 -40.8141 75° East  Level FlightAware Approximate
Mon 07:50:00 PM 51.9092 -40.5922 76° East  Level FlightAware Approximate
Mon 07:51:00 PM 51.9436 -40.3700 76° East  Level FlightAware Approximate
Mon 07:52:00 PM 51.9777 -40.1475 76° East  Level FlightAware Approximate
Mon 07:53:00 PM 52.0181 -39.9282 68° East  Level FlightAware Approximate
Mon 07:54:00 PM 52.0715 -39.7154 68° East  Level FlightAware Approximate
Mon 07:55:00 PM 52.1245 -39.5022 68° East  Level FlightAware Approximate
Mon 07:56:00 PM 52.1771 -39.2885 68° East  Level FlightAware Approximate
Mon 07:57:00 PM 52.2294 -39.0742 68° East  Level FlightAware Approximate
Mon 07:58:00 PM 52.2812 -38.8595 68° East  Level FlightAware Approximate
Mon 07:59:00 PM 52.3326 -38.6443 69° East  Level FlightAware Approximate
Mon 08:00:00 PM 52.3837 -38.4285 69° East  Level FlightAware Approximate
Mon 08:01:00 PM 52.4343 -38.2123 69° East  Level FlightAware Approximate
Mon 08:02:00 PM 52.4846 -37.9955 69° East  Level FlightAware Approximate
Mon 08:03:00 PM 52.5345 -37.7783 69° East  Level FlightAware Approximate
Mon 08:04:00 PM 52.5839 -37.5606 69° East  Level FlightAware Approximate
Mon 08:05:00 PM 52.6330 -37.3424 70° East  Level FlightAware Approximate
Mon 08:06:00 PM 52.6817 -37.1237 70° East  Level FlightAware Approximate
Mon 08:07:00 PM 52.7299 -36.9045 70° East  Level FlightAware Approximate
Mon 08:08:00 PM 52.7778 -36.6848 70° East  Level FlightAware Approximate
Mon 08:09:00 PM 52.8252 -36.4647 70° East  Level FlightAware Approximate
Mon 08:10:00 PM 52.8723 -36.2441 70° East  Level FlightAware Approximate
Mon 08:11:00 PM 52.9189 -36.0229 71° East  Level FlightAware Approximate
Mon 08:12:00 PM 52.9651 -35.8014 71° East  Level FlightAware Approximate
Mon 08:13:00 PM 53.0109 -35.5793 71° East  Level FlightAware Approximate
Mon 08:14:00 PM 53.0564 -35.3568 71° East  Level FlightAware Approximate
Mon 08:15:00 PM 53.1013 -35.1338 71° East  Level FlightAware Approximate
Mon 08:16:00 PM 53.1459 -34.9104 72° East  Level FlightAware Approximate
Mon 08:17:00 PM 53.1900 -34.6864 72° East  Level FlightAware Approximate
Mon 08:18:00 PM 53.2337 -34.4621 72° East  Level FlightAware Approximate
Mon 08:19:00 PM 53.2771 -34.2372 72° East  Level FlightAware Approximate
Mon 08:20:00 PM 53.3199 -34.0119 72° East  Level FlightAware Approximate
Mon 08:21:00 PM 53.3624 -33.7862 72° East  Level FlightAware Approximate
Mon 08:22:00 PM 53.4044 -33.5600 73° East  Level FlightAware Approximate
Mon 08:23:00 PM 53.4460 -33.3334 73° East  Level FlightAware Approximate
Mon 08:24:00 PM 53.4872 -33.1063 73° East  Level FlightAware Approximate
Mon 08:25:00 PM 53.5279 -32.8788 73° East  Level FlightAware Approximate
Mon 08:26:00 PM 53.5682 -32.6508 73° East  Level FlightAware Approximate
Mon 08:27:00 PM 53.6081 -32.4225 74° East  Level FlightAware Approximate
Mon 08:28:00 PM 53.6475 -32.1937 74° East  Level FlightAware Approximate
Mon 08:29:00 PM 53.6865 -31.9644 74° East  Level FlightAware Approximate
Mon 08:30:00 PM 53.7251 -31.7348 74° East  Level FlightAware Approximate
Mon 08:31:00 PM 53.7632 -31.5047 74° East  Level FlightAware Approximate
Mon 08:32:00 PM 53.8008 -31.2742 74° East  Level FlightAware Approximate
Mon 08:33:00 PM 53.8381 -31.0433 75° East  Level FlightAware Approximate
Mon 08:34:00 PM 53.8749 -30.8120 75° East  Level FlightAware Approximate
Mon 08:35:00 PM 53.9112 -30.5803 75° East  Level FlightAware Approximate
Mon 08:36:00 PM 53.9471 -30.3482 75° East  Level FlightAware Approximate
Mon 08:37:00 PM 53.9826 -30.1156 75° East  Level FlightAware Approximate
Mon 08:38:00 PM 54.0168 -29.8824 76° East  Level FlightAware Approximate
Mon 08:39:00 PM 54.0497 -29.6484 76° East  Level FlightAware Approximate
Mon 08:40:00 PM 54.0822 -29.4141 77° East  Level FlightAware Approximate
Mon 08:41:00 PM 54.1143 -29.1794 77° East  Level FlightAware Approximate
Mon 08:42:00 PM 54.1459 -28.9444 77° East  Level FlightAware Approximate
Mon 08:43:00 PM 54.1770 -28.7090 77° East  Level FlightAware Approximate
Mon 08:44:00 PM 54.2077 -28.4732 77° East  Level FlightAware Approximate
Mon 08:45:00 PM 54.2379 -28.2371 78° East  Level FlightAware Approximate
Mon 08:46:00 PM 54.2677 -28.0007 78° East  Level FlightAware Approximate
Mon 08:47:00 PM 54.2970 -27.7639 78° East  Level FlightAware Approximate
Mon 08:48:00 PM 54.3258 -27.5268 78° East  Level FlightAware Approximate
Mon 08:49:00 PM 54.3542 -27.2893 78° East  Level FlightAware Approximate
Mon 08:50:00 PM 54.3821 -27.0515 79° East  Level FlightAware Approximate
Mon 08:51:00 PM 54.4096 -26.8135 79° East  Level FlightAware Approximate
Mon 08:52:00 PM 54.4367 -26.5751 79° East  Level FlightAware Approximate
Mon 08:53:00 PM 54.4633 -26.3364 79° East  Level FlightAware Approximate
Mon 08:54:00 PM 54.4894 -26.0974 79° East  Level FlightAware Approximate
Mon 08:55:00 PM 54.5150 -25.8581 79° East  Level FlightAware Approximate
Mon 08:56:00 PM 54.5402 -25.6185 80° East  Level FlightAware Approximate
Mon 08:57:00 PM 54.5649 -25.3786 80° East  Level FlightAware Approximate
Mon 08:58:00 PM 54.5891 -25.1385 80° East  Level FlightAware Approximate
Mon 08:59:00 PM 54.6129 -24.8980 80° East  Level FlightAware Approximate
Mon 09:00:00 PM 54.6362 -24.6572 80° East  Level FlightAware Approximate
Mon 09:01:00 PM 54.6590 -24.4162 81° East  Level FlightAware Approximate
Mon 09:02:00 PM 54.6819 -24.1751 80° East  Level FlightAware Approximate
Mon 09:03:00 PM 54.7047 -23.9338 81° East  Level FlightAware Approximate
Mon 09:04:00 PM 54.7271 -23.6923 81° East  Level FlightAware Approximate
Mon 09:05:00 PM 54.7489 -23.4505 81° East  Level FlightAware Approximate
Mon 09:06:00 PM 54.7702 -23.2084 82° East  Level FlightAware Approximate
Mon 09:07:00 PM 54.7906 -22.9659 82° East  Level FlightAware Approximate
Mon 09:08:00 PM 54.8106 -22.7232 82° East  Level FlightAware Approximate
Mon 09:09:00 PM 54.8300 -22.4803 82° East  Level FlightAware Approximate
Mon 09:10:00 PM 54.8490 -22.2372 82° East  Level FlightAware Approximate
Mon 09:11:00 PM 54.8675 -21.9938 82° East  Level FlightAware Approximate
Mon 09:12:00 PM 54.8855 -21.7502 83° East  Level FlightAware Approximate
Mon 09:13:00 PM 54.9030 -21.5064 83° East  Level FlightAware Approximate
Mon 09:14:00 PM 54.9200 -21.2623 83° East  Level FlightAware Approximate
Mon 09:15:00 PM 54.9365 -21.0181 83° East  Level FlightAware Approximate
Mon 09:16:00 PM 54.9525 -20.7737 83° East  Level FlightAware Approximate
Mon 09:17:00 PM 54.9681 -20.5291 84° East  Level FlightAware Approximate
Mon 09:18:00 PM 54.9832 -20.2843 84° East  Level FlightAware Approximate
Mon 09:19:00 PM 54.9977 -20.0393 84° East  Level FlightAware Approximate
Mon 09:20:00 PM 54.9844 -19.7950 97° East  Level FlightAware Approximate
Mon 09:21:00 PM 54.9654 -19.5510 98° East  Level FlightAware Approximate
Mon 09:22:00 PM 54.9459 -19.3073 98° East  Level FlightAware Approximate
Mon 09:23:00 PM 54.9259 -19.0638 98° East  Level FlightAware Approximate
Mon 09:24:00 PM 54.9055 -18.8205 98° East  Level FlightAware Approximate
Mon 09:25:00 PM 54.8845 -18.5775 98° East  Level FlightAware Approximate
Mon 09:26:00 PM 54.8631 -18.3348 99° East  Level FlightAware Approximate
Mon 09:27:00 PM 54.8412 -18.0923 99° East  Level FlightAware Approximate
Mon 09:28:00 PM 54.8188 -17.8501 99° East  Level FlightAware Approximate
Mon 09:29:00 PM 54.7959 -17.6082 99° East  Level FlightAware Approximate
Mon 09:30:00 PM 54.7725 -17.3665 99° East  Level FlightAware Approximate
Mon 09:31:00 PM 54.7486 -17.1251 100° East  Level FlightAware Approximate
Mon 09:32:00 PM 54.7243 -16.8840 100° East  Level FlightAware Approximate
Mon 09:33:00 PM 54.6995 -16.6432 100° East  Level FlightAware Approximate
Mon 09:34:00 PM 54.6743 -16.4027 100° East  Level FlightAware Approximate
Mon 09:35:00 PM 54.6485 -16.1625 100° East  Level FlightAware Approximate
Mon 09:36:00 PM 54.6223 -15.9226 101° East  Level FlightAware Approximate
Mon 09:37:00 PM 54.5956 -15.6830 101° East  Level FlightAware Approximate
Mon 09:37:57 PM 54.8330 -13.8430 101° East 542 624 38,000  Level FlightAware ADS-B
Mon 09:38:00 PM 54.5684 -15.4437 101° East  Level FlightAware Approximate
Mon 09:38:42 PM 54.7980 -13.6280 106° East 543 625 38,000  Level FlightAware ADS-B
Mon 09:39:22 PM 54.7720 -13.4570 105° East 541 623 38,000  Level FlightAware ADS-B
Mon 09:40:17 PM 54.7350 -13.2230 105° East 543 625 38,000  Level FlightAware ADS-B
Mon 09:41:17 PM 54.6980 -12.9890 105° East 543 625 38,000  Level FlightAware ADS-B
Mon 09:41:57 PM 54.6710 -12.8190 105° East 539 620 38,000  Level FlightAware ADS-B
Mon 09:42:52 PM 54.6340 -12.5940 106° East 539 620 38,000  Level FlightAware ADS-B
Mon 09:43:32 PM 54.6080 -12.4330 106° East 538 619 38,000  Level FlightAware ADS-B
Mon 09:44:17 PM 54.5770 -12.2430 106° East 537 618 38,000  Level FlightAware ADS-B
Mon 09:44:57 PM 54.5490 -12.0810 107° East 538 619 38,000  Level FlightAware ADS-B
Mon 09:45:42 PM 54.5180 -11.8950 106° East 535 616 38,000  Level FlightAware ADS-B
Mon 09:46:22 PM 54.4900 -11.7310 106° East 536 617 38,000  Level FlightAware ADS-B
Mon 09:47:02 PM 54.4620 -11.5670 106° East 536 617 38,000  Level FlightAware ADS-B
Mon 09:47:47 PM 54.4290 -11.3820 107° East 535 616 38,000  Level FlightAware ADS-B
Mon 09:48:27 PM 54.4010 -11.2190 106° East 535 616 38,000  Level FlightAware ADS-B
Mon 09:49:22 PM 54.3610 -10.9940 107° East 535 616 38,000  Level FlightAware ADS-B
Mon 09:50:07 PM 54.3280 -10.8140 107° East 537 618 38,000  Level FlightAware ADS-B
Mon 09:50:47 PM 54.2990 -10.6500 107° East 537 618 38,000  Level FlightAware ADS-B
Mon 09:51:32 PM 54.2650 -10.4670 108° East 538 619 38,000  Level FlightAware ADS-B
Mon 09:52:12 PM 54.2360 -10.3060 107° East 539 620 38,000  Level FlightAware ADS-B
Mon 09:52:52 PM 54.2050 -10.1440 108° East 538 619 38,000  Level FlightAware ADS-B
Mon 09:53:37 PM 54.1710 -9.9630 108° East 534 615 38,000  Level FlightAware ADS-B
Mon 09:54:17 PM 54.1410 -9.8030 108° East 534 615 38,000  Level FlightAware ADS-B
Mon 09:55:02 PM 54.1060 -9.6230 108° East 535 616 38,000  Level FlightAware ADS-B
Mon 09:55:42 PM 54.0760 -9.4650 108° East 531 611 38,000  Level FlightAware ADS-B
Mon 09:56:22 PM 54.0450 -9.3060 108° East 533 613 38,000  Level FlightAware ADS-B
Mon 09:57:07 PM 54.0100 -9.1270 108° East 531 611 38,000 -1,297 Level FlightAware ADS-B
Mon 09:57:36 PM 53.9828 -8.9909 108° East 460 529 36,400  Descending FlightAware UK
Mon 09:57:47 PM 53.9780 -8.9660 108° East 531 611 38,000 200 Climbing FlightAware ADS-B
Mon 09:58:06 PM 53.9593 -8.8724 108° East 456 525 36,500 -2,432 Descending FlightAware UK
Mon 09:58:24 PM 53.9452 -8.8013 109° East 458 527 36,500 3,462 Level FlightAware UK
Mon 09:58:32 PM 53.9430 -8.7920 109° East 531 611 38,000 -250 Climbing FlightAware ADS-B
Mon 09:58:48 PM 53.9262 -8.7066 109° East 458 527 36,400 -2,647 Descending FlightAware UK
Mon 09:59:06 PM 53.9117 -8.6358 109° East 454 522 36,500  Climbing FlightAware UK
Mon 09:59:24 PM 53.8974 -8.5651 109° East 456 525 36,400 -167 Descending FlightAware UK
Mon 09:59:42 PM 53.8830 -8.4947 109° East 456 525 36,400  Level FlightAware UK
Mon 10:00:00 PM 53.8684 -8.4235 109° East 458 527 36,400  Level FlightAware UK
Mon 10:00:18 PM 53.8540 -8.3531 109° East 456 525 36,400 167 Level FlightAware UK
Mon 10:00:36 PM 53.8396 -8.2827 109° East 454 522 36,500 167 Climbing FlightAware UK
Mon 10:00:54 PM 53.8253 -8.2124 109° East 454 522 36,500  Level FlightAware UK
Mon 10:01:12 PM 53.8106 -8.1422 110° East 456 525 36,500 3,913 Level FlightAware UK
Mon 10:01:17 PM 53.8120 -8.1510 110° East 530 610 38,000 -250 Climbing FlightAware ADS-B
Mon 10:01:36 PM 53.7913 -8.0485 110° East 456 525 36,400 -2,595 Descending FlightAware UK
Mon 10:01:54 PM 53.7767 -7.9781 109° East 456 525 36,400  Level FlightAware UK
Mon 10:02:12 PM 53.7620 -7.9078 109° East 460 529 36,400  Level FlightAware UK
Mon 10:02:30 PM 53.7472 -7.8380 110° East 456 525 36,400 167 Level FlightAware UK
Mon 10:02:48 PM 53.7324 -7.7685 110° East 456 525 36,500 143 Climbing FlightAware UK
Mon 10:03:12 PM 53.7129 -7.6762 110° East 456 525 36,500  Level FlightAware UK
Mon 10:03:30 PM 53.6984 -7.6078 110° East 456 525 36,500  Level FlightAware UK
Mon 10:03:48 PM 53.6838 -7.5394 110° East 454 522 36,500  Level FlightAware UK
Mon 10:04:06 PM 53.6693 -7.4718 110° East 454 522 36,500 -167 Level FlightAware UK
Mon 10:04:24 PM 53.6547 -7.4036 110° East 454 522 36,400 -167 Descending FlightAware UK
Mon 10:04:42 PM 53.6399 -7.3351 110° East 454 522 36,400  Level FlightAware UK
Mon 10:05:00 PM 53.6251 -7.2666 110° East 454 522 36,400  Level FlightAware UK
Mon 10:05:18 PM 53.6102 -7.1972 110° East 454 522 36,400  Level FlightAware UK
Mon 10:05:36 PM 53.5953 -7.1286 110° East 456 525 36,400  Level FlightAware UK
Mon 10:05:54 PM 53.5802 -7.0598 110° East 454 522 36,400  Level FlightAware UK
Mon 10:06:12 PM 53.5651 -6.9907 110° East 456 525 36,400  Level FlightAware UK
Mon 10:06:30 PM 53.5499 -6.9218 110° East 456 525 36,400  Level FlightAware UK
Mon 10:06:48 PM 53.5347 -6.8529 110° East 456 525 36,400  Level FlightAware UK
Mon 10:07:06 PM 53.5194 -6.7842 110° East 454 522 36,400  Level FlightAware UK
Mon 10:07:24 PM 53.5041 -6.7155 110° East 454 522 36,400  Level FlightAware UK
Mon 10:07:42 PM 53.4889 -6.6467 110° East 454 522 36,400  Level FlightAware UK
Mon 10:08:00 PM 53.4736 -6.5781 111° Southeast 454 522 36,400  Level FlightAware UK
Mon 10:08:18 PM 53.4581 -6.5094 111° Southeast 454 522 36,400  Level FlightAware UK
Mon 10:08:36 PM 53.4426 -6.4406 111° Southeast 454 522 36,400  Level FlightAware UK
Mon 10:08:54 PM 53.4269 -6.3718 111° Southeast 454 522 36,400  Level FlightAware UK
Mon 10:09:12 PM 53.4113 -6.3029 111° Southeast 456 525 36,400  Level FlightAware UK
Mon 10:09:30 PM 53.3955 -6.2334 111° Southeast 454 522 36,400  Level FlightAware UK
Mon 10:09:48 PM 53.3797 -6.1647 111° Southeast 452 520 36,400  Level FlightAware UK
Mon 10:10:06 PM 53.3641 -6.0959 111° Southeast 452 520 36,400  Level FlightAware UK
Mon 10:10:24 PM 53.3483 -6.0272 111° Southeast 454 522 36,400  Level FlightAware UK
Mon 10:10:42 PM 53.3324 -5.9584 111° Southeast 454 522 36,400  Level FlightAware UK
Mon 10:11:00 PM 53.3164 -5.8893 111° Southeast 454 522 36,400  Level FlightAware UK
Mon 10:11:18 PM 53.3002 -5.8195 111° Southeast 454 522 36,400  Level FlightAware UK
Mon 10:11:36 PM 53.2844 -5.7512 111° Southeast 456 525 36,400  Level FlightAware UK
Mon 10:11:54 PM 53.2680 -5.6814 111° Southeast 456 525 36,400  Level FlightAware UK
Mon 10:12:12 PM 53.2522 -5.6132 111° Southeast 452 520 36,400  Level FlightAware UK
Mon 10:12:30 PM 53.2359 -5.5436 111° Southeast 454 522 36,400  Level FlightAware UK
Mon 10:12:48 PM 53.2196 -5.4749 112° Southeast 458 527 36,400  Level FlightAware UK
Mon 10:13:06 PM 53.2032 -5.4061 112° Southeast 454 522 36,400  Level FlightAware UK
Mon 10:13:24 PM 53.1869 -5.3375 112° Southeast 456 525 36,400  Level FlightAware UK
Mon 10:13:42 PM 53.1706 -5.2689 112° Southeast 458 527 36,400  Level FlightAware UK
Mon 10:14:00 PM 53.1542 -5.2004 112° Southeast 452 520 36,400  Level FlightAware UK
Mon 10:14:18 PM 53.1379 -5.1322 112° Southeast 456 525 36,400  Level FlightAware UK
Mon 10:14:36 PM 53.1217 -5.0639 112° Southeast 458 527 36,400  Level FlightAware UK
Mon 10:14:55 PM 53.1050 -4.9949 112° Southeast 458 527 36,400 3,692 Level FlightAware UK
Mon 10:15:02 PM 53.1020 -4.9850 112° Southeast 531 611 38,000  Climbing FlightAware ADS-B
Mon 10:15:19 PM 53.0830 -4.9042 112° Southeast 456 525 36,400 -2,571 Descending FlightAware UK
Mon 10:15:37 PM 53.0666 -4.8367 112° Southeast 452 520 36,500 3,429 Climbing FlightAware UK
Mon 10:15:47 PM 53.0620 -4.8180 112° Southeast 525 604 38,000 3,750 Climbing FlightAware ADS-B
Mon 10:16:01 PM 53.0459 -4.7522 112° Southeast 528 608 38,000 -2,813 Level FlightAware ADS-B
Mon 10:16:19 PM 53.0284 -4.6803 112° Southeast 458 527 36,500  Descending FlightAware UK
Mon 10:16:31 PM 53.0178 -4.6372 112° Southeast 527 606 38,000  Climbing FlightAware ADS-B
Mon 10:16:49 PM 53.0011 -4.5686 112° Southeast 454 522 36,500  Descending FlightAware UK
Mon 10:17:07 PM 52.9858 -4.5073 112° Southeast 523 602 38,000  Climbing FlightAware ADS-B
Mon 10:17:25 PM 52.9682 -4.4356 112° Southeast 456 525 36,500  Descending FlightAware UK
Mon 10:17:37 PM 52.9582 -4.3955 112° Southeast 520 598 38,000  Climbing FlightAware ADS-B
Mon 10:17:55 PM 52.9407 -4.3253 112° Southeast 454 522 36,500  Descending FlightAware UK
Mon 10:18:08 PM 52.9295 -4.2804 112° Southeast 517 595 38,000  Climbing FlightAware ADS-B
Mon 10:18:25 PM 52.9134 -4.2155 112° Southeast 452 520 36,500  Descending FlightAware UK
Mon 10:18:39 PM 52.9013 -4.1675 112° Southeast 516 594 38,000  Climbing FlightAware ADS-B
Mon 10:18:55 PM 52.8861 -4.1066 112° Southeast 452 520 36,500  Descending FlightAware UK
Mon 10:19:09 PM 52.8737 -4.0579 112° Southeast 516 594 38,000  Climbing FlightAware ADS-B
Mon 10:19:25 PM 52.8590 -3.9983 112° Southeast 452 520 36,500  Descending FlightAware UK
Mon 10:19:40 PM 52.8461 -3.9479 112° Southeast 517 595 38,000  Climbing FlightAware ADS-B
Mon 10:19:55 PM 52.8311 -3.8887 112° Southeast 452 520 36,500  Descending FlightAware UK
Mon 10:20:11 PM 52.8171 -3.8344 112° Southeast 516 594 38,000  Climbing FlightAware ADS-B
Mon 10:20:31 PM 52.7977 -3.7574 112° Southeast 452 520 36,500  Descending FlightAware UK
Mon 10:20:41 PM 52.7894 -3.7256 112° Southeast 517 595 38,000 -200 Climbing FlightAware ADS-B
Mon 10:21:01 PM 52.7699 -3.6487 112° Southeast 454 522 36,400  Descending FlightAware UK
Mon 10:21:12 PM 52.7609 -3.6138 112° Southeast 518 596 38,000  Climbing FlightAware ADS-B
Mon 10:21:31 PM 52.7420 -3.5398 112° Southeast 456 525 36,400  Descending FlightAware UK
Mon 10:21:43 PM 52.7319 -3.5018 112° Southeast 517 595 38,000  Climbing FlightAware ADS-B
Mon 10:22:01 PM 52.7137 -3.4305 112° Southeast 454 522 36,400  Descending FlightAware UK
Mon 10:22:16 PM 52.7014 -3.3837 112° Southeast 515 593 38,000  Climbing FlightAware ADS-B
Mon 10:22:31 PM 52.6858 -3.3232 112° Southeast 452 520 36,400  Descending FlightAware UK
Mon 10:22:46 PM 52.6733 -3.2754 112° Southeast 515 593 38,000  Climbing FlightAware ADS-B
Mon 10:23:01 PM 52.6578 -3.2156 112° Southeast 452 520 36,400  Descending FlightAware UK
Mon 10:23:16 PM 52.6448 -3.1671 112° Southeast 518 596 38,000  Climbing FlightAware ADS-B
Mon 10:23:31 PM 52.6294 -3.1078 112° Southeast 454 522 36,400 -2,909 Descending FlightAware UK
Mon 10:23:49 PM 52.6124 -3.0429 113° Southeast 456 525 36,400 3,692 Level FlightAware UK
Mon 10:23:57 PM 52.6054 -3.0168 113° Southeast 520 598 38,000  Climbing FlightAware ADS-B
Mon 10:24:13 PM 52.5898 -2.9568 113° Southeast 456 525 36,400  Descending FlightAware UK
Mon 10:24:30 PM 52.5741 -2.8984 113° Southeast 515 593 38,000  Climbing FlightAware ADS-B
Mon 10:24:49 PM 52.5552 -2.8270 113° Southeast 454 522 36,400  Descending FlightAware UK
Mon 10:25:01 PM 52.5456 -2.7910 113° Southeast 514 592 38,000  Climbing FlightAware ADS-B
Mon 10:25:19 PM 52.5268 -2.7202 113° Southeast 452 520 36,400  Descending FlightAware UK
Mon 10:25:31 PM 52.5169 -2.6835 113° Southeast 514 592 38,000  Climbing FlightAware ADS-B
Mon 10:25:49 PM 52.4982 -2.6137 113° Southeast 454 522 36,400  Descending FlightAware UK
Mon 10:26:02 PM 52.4868 -2.5716 113° Southeast 514 592 38,000  Climbing FlightAware ADS-B
Mon 10:26:19 PM 52.4692 -2.5053 113° Southeast 452 520 36,400  Descending FlightAware UK
Mon 10:26:32 PM 52.4579 -2.4645 113° Southeast 513 590 38,000 200 Climbing FlightAware ADS-B
Mon 10:26:49 PM 52.4408 -2.3996 113° Southeast 452 520 36,500  Descending FlightAware UK
Mon 10:27:03 PM 52.4284 -2.3556 113° Southeast 515 593 38,000 -200 Climbing FlightAware ADS-B
Mon 10:27:19 PM 52.4118 -2.2930 113° Southeast 454 522 36,400  Descending FlightAware UK
Mon 10:27:33 PM 52.3995 -2.2485 113° Southeast 516 594 38,000 200 Climbing FlightAware ADS-B
Mon 10:27:49 PM 52.3827 -2.1864 113° Southeast 450 518 36,500  Descending FlightAware UK
Mon 10:28:03 PM 52.3700 -2.1409 113° Southeast 521 600 38,000 -200 Climbing FlightAware ADS-B
Mon 10:28:19 PM 52.3531 -2.0790 113° Southeast 458 527 36,400  Descending FlightAware UK
Mon 10:28:34 PM 52.3398 -2.0312 113° Southeast 523 602 38,000 200 Climbing FlightAware ADS-B
Mon 10:28:49 PM 52.3234 -1.9707 113° Southeast 458 527 36,500  Descending FlightAware UK
Mon 10:29:05 PM 52.3094 -1.9203 113° Southeast 519 597 38,000  Climbing FlightAware ADS-B
Mon 10:29:25 PM 52.2877 -1.8420 113° Southeast 456 525 36,500  Descending FlightAware UK
Mon 10:29:38 PM 52.2767 -1.8028 113° Southeast 516 594 38,000  Climbing FlightAware ADS-B
Mon 10:29:56 PM 52.2581 -1.7355 113° Southeast 450 518 36,500  Descending FlightAware UK
Mon 10:30:09 PM 52.2467 -1.6950 113° Southeast 515 593 38,000  Climbing FlightAware ADS-B
Mon 10:30:25 PM 52.2290 -1.6315 113° Southeast 452 520 36,500  Descending FlightAware UK
Mon 10:30:39 PM 52.2168 -1.5880 113° Southeast 516 594 38,000  Climbing FlightAware ADS-B
Mon 10:30:56 PM 52.1988 -1.5239 113° Southeast 454 522 36,500  Descending FlightAware UK
Mon 10:31:09 PM 52.1869 -1.4812 113° Southeast 518 596 38,000  Climbing FlightAware ADS-B
Mon 10:31:26 PM 52.1689 -1.4180 113° Southeast 454 522 36,500  Descending FlightAware UK
Mon 10:31:40 PM 52.1564 -1.3741 113° Southeast 517 595 38,000  Climbing FlightAware ADS-B
Mon 10:31:56 PM 52.1389 -1.3122 113° Southeast 454 522 36,500  Descending FlightAware UK
Mon 10:32:10 PM 52.1261 -1.2668 113° Southeast 520 598 38,000  Climbing FlightAware ADS-B
Mon 10:32:26 PM 52.1089 -1.2069 113° Southeast 454 522 36,500  Descending FlightAware UK
Mon 10:32:40 PM 52.0956 -1.1597 113° Southeast 520 598 38,000  Climbing FlightAware ADS-B
Mon 10:32:56 PM 52.0785 -1.1002 113° Southeast 458 527 36,500  Descending FlightAware UK
Mon 10:33:11 PM 52.0649 -1.0527 113° Southeast 516 594 38,000  Climbing FlightAware ADS-B
Mon 10:33:26 PM 52.0486 -0.9954 113° Southeast 454 522 36,500  Descending FlightAware UK
Mon 10:33:41 PM 52.0348 -0.9477 113° Southeast 516 594 38,000  Climbing FlightAware ADS-B
Mon 10:33:56 PM 52.0177 -0.8884 113° Southeast 452 520 36,500  Descending FlightAware UK
Mon 10:34:11 PM 52.0042 -0.8421 113° Southeast 515 593 38,000 -200 Climbing FlightAware ADS-B
Mon 10:34:26 PM 51.9876 -0.7847 113° Southeast 456 525 36,400  Descending FlightAware UK
Mon 10:34:41 PM 51.9734 -0.7366 113° Southeast 512 589 38,000 200 Climbing FlightAware ADS-B
Mon 10:34:56 PM 51.9573 -0.6810 113° Southeast 450 518 36,500  Descending FlightAware UK
Mon 10:35:12 PM 51.9431 -0.6319 113° Southeast 512 589 38,000 -167 Climbing FlightAware ADS-B
Mon 10:35:32 PM 51.9209 -0.5561 113° Southeast 454 522 36,400  Descending FlightAware UK
Mon 10:35:42 PM 51.9122 -0.5266 113° Southeast 511 588 38,000 200 Climbing FlightAware ADS-B
Mon 10:36:02 PM 51.8903 -0.4521 113° Southeast 454 522 36,500  Descending FlightAware UK
Mon 10:36:12 PM 51.8818 -0.4230 113° Southeast 513 590 38,000 -200 Climbing FlightAware ADS-B
Mon 10:36:32 PM 51.8599 -0.3484 113° Southeast 450 518 36,400  Descending FlightAware UK
Mon 10:36:42 PM 51.8512 -0.3197 113° Southeast 511 588 38,000  Climbing FlightAware ADS-B
Mon 10:37:02 PM 51.8295 -0.2459 113° Southeast 456 525 36,400  Descending FlightAware UK
Mon 10:37:12 PM 51.8206 -0.2159 113° Southeast 511 588 38,000 200 Climbing FlightAware ADS-B
Mon 10:37:32 PM 51.7987 -0.1425 113° Southeast 454 522 36,500  Descending FlightAware UK
Mon 10:37:42 PM 51.7896 -0.1124 113° Southeast 511 588 38,000 -200 Climbing FlightAware ADS-B
Mon 10:38:02 PM 51.7679 -0.0398 113° Southeast 450 518 36,400  Descending FlightAware UK
Mon 10:38:12 PM 51.7590 -0.0098 113° Southeast 509 586 38,000 240 Climbing FlightAware ADS-B
Mon 10:38:27 PM 51.7431 0.0427 113° Southeast 454 522 36,500  Descending FlightAware UK
Mon 10:38:43 PM 51.7281 0.0928 113° Southeast 510 587 38,000  Climbing FlightAware ADS-B
Mon 10:39:03 PM 51.7060 0.1661 113° Southeast 454 522 36,500  Descending FlightAware UK
Mon 10:39:13 PM 51.6968 0.1968 113° Southeast 509 586 38,000  Climbing FlightAware ADS-B
Mon 10:39:32 PM 51.6755 0.2669 113° Southeast 450 518 36,500  Descending FlightAware UK
Mon 10:39:43 PM 51.6656 0.2998 113° Southeast 509 586 38,000 -162 Climbing FlightAware ADS-B
Mon 10:40:09 PM 51.6382 0.3896 113° Southeast 454 522 36,400  Descending FlightAware UK
Mon 10:40:13 PM 51.6348 0.4009 113° Southeast 506 582 38,000 261 Climbing FlightAware ADS-B
Mon 10:40:32 PM 51.6137 0.4698 113° Southeast 452 520 36,500  Descending FlightAware UK
Mon 10:40:47 PM 51.6005 0.5128 113° Southeast 505 581 38,000  Climbing FlightAware ADS-B
Mon 10:41:02 PM 51.5831 0.5702 113° Southeast 456 525 36,500  Descending FlightAware UK
Mon 10:41:17 PM 51.5695 0.6140 113° Southeast 503 579 38,000  Climbing FlightAware ADS-B
Mon 10:41:32 PM 51.5521 0.6703 113° Southeast 454 522 36,500  Descending FlightAware UK
Mon 10:41:47 PM 51.5386 0.7138 113° Southeast 496 571 38,000  Climbing FlightAware ADS-B
Mon 10:42:02 PM 51.5217 0.7688 113° Southeast 452 520 36,500  Descending FlightAware UK
Mon 10:42:17 PM 51.5080 0.8129 113° Southeast 495 570 38,000 -194 Climbing FlightAware ADS-B
Mon 10:42:33 PM 51.4911 0.8677 113° Southeast 450 518 36,400  Descending FlightAware UK
Mon 10:42:47 PM 51.4771 0.9122 113° Southeast 494 568 38,000 200 Climbing FlightAware ADS-B
Mon 10:43:03 PM 51.4603 0.9664 113° Southeast 452 520 36,500  Descending FlightAware UK
Mon 10:43:18 PM 51.4463 1.0110 113° Southeast 495 570 38,000 -167 Climbing FlightAware ADS-B
Mon 10:43:39 PM 51.4237 1.0834 113° Southeast 452 520 36,400  Descending FlightAware UK
Mon 10:43:48 PM 51.4155 1.1095 113° Southeast 495 570 38,000 200 Climbing FlightAware ADS-B
Mon 10:44:09 PM 51.3929 1.1814 113° Southeast 452 520 36,500  Descending FlightAware UK
Mon 10:44:18 PM 51.3846 1.2077 113° Southeast 496 571 38,000  Climbing FlightAware ADS-B
Mon 10:44:33 PM 51.3678 1.2610 113° Southeast 452 520 36,500  Descending FlightAware UK
Mon 10:44:48 PM 51.3531 1.3074 113° Southeast 497 572 38,000  Climbing FlightAware ADS-B
Mon 10:45:03 PM 51.3370 1.3592 113° Southeast 452 520 36,500  Descending FlightAware UK
Mon 10:45:18 PM 51.3218 1.4054 113° Southeast 498 573 38,000  Climbing FlightAware ADS-B
Mon 10:45:38 PM 51.3000 1.4749 113° Southeast 452 520 36,500  Descending FlightAware UK
Mon 10:45:44 PM 51.2954 1.4893 113° Southeast 498 573 38,000 -240 Climbing FlightAware ADS-B
Mon 10:46:03 PM 51.2785 1.5565 113° Southeast 452 520 36,400  Descending FlightAware UK
Mon 10:46:04 PM 51.2783 1.5568 113° Southeast 493 567 38,000  Climbing FlightAware ADS-B
Mon 10:46:21 PM 51.2667 1.6193 113° Southeast 454 522 36,400 -2,743 Descending FlightAware UK
Mon 10:46:39 PM 51.2561 1.6818 105° East 452 520 36,400 3,692 Level FlightAware UK
Mon 10:46:47 PM 51.2540 1.6960 105° East 488 562 38,000  Climbing FlightAware ADS-B
Mon 10:47:03 PM 51.2418 1.7644 105° East 452 520 36,400 -2,824 Descending FlightAware UK
Mon 10:47:21 PM 51.2310 1.8268 105° East 452 520 36,400 4,000 Level FlightAware UK
Mon 10:47:27 PM 51.2280 1.8428 105° East 490 564 38,000 200 Climbing FlightAware ADS-B
Mon 10:47:51 PM 51.2128 1.9314 105° East 452 520 36,500  Descending FlightAware UK
Mon 10:47:57 PM 51.2095 1.9483 105° East 489 563 38,000  Climbing FlightAware ADS-B
Mon 10:48:15 PM 51.1978 2.0157 105° East 452 520 36,500  Descending FlightAware UK
Mon 10:48:27 PM 51.1912 2.0537 105° East 489 563 38,000  Climbing FlightAware ADS-B
Mon 10:48:45 PM 51.1798 2.1194 105° East 452 520 36,500  Descending FlightAware UK
Mon 10:48:58 PM 51.1731 2.1608 105° East 489 563 38,000  Climbing FlightAware ADS-B
Mon 10:49:15 PM 51.1623 2.2240 105° East 450 518 36,500  Descending FlightAware UK
Mon 10:49:29 PM 51.1550 2.2673 105° East 491 565 38,000 -200 Climbing FlightAware ADS-B
Mon 10:49:45 PM 51.1451 2.3270 105° East 454 522 36,400  Descending FlightAware UK
Mon 10:50:00 PM 51.1369 2.3741 105° East 490 564 38,000  Climbing FlightAware ADS-B
Mon 10:50:16 PM 51.1270 2.4335 105° East 452 520 36,400  Descending FlightAware UK
Mon 10:50:31 PM 51.1186 2.4817 105° East 489 563 38,000  Climbing FlightAware ADS-B
Mon 10:50:51 PM 51.1057 2.5570 105° East 450 518 36,400  Descending FlightAware UK
Mon 10:51:01 PM 51.1006 2.5855 105° East 491 565 38,000  Climbing FlightAware ADS-B
Mon 10:51:16 PM 51.0910 2.6415 105° East 452 520 36,400 -2,813 Descending FlightAware UK
Mon 10:51:33 PM 51.0803 2.7024 106° East 452 520 36,500 4,571 Climbing FlightAware UK
Mon 10:51:37 PM 51.0786 2.7129 106° East 491 565 38,000  Climbing FlightAware ADS-B
Mon 10:51:52 PM 51.0691 2.7662 106° East 452 520 36,500 -2,813 Descending FlightAware UK
Mon 10:52:09 PM 51.0585 2.8273 105° East 452 520 36,500 2,903 Level FlightAware UK
Mon 10:52:23 PM 51.0508 2.8701 105° East 490 564 38,000  Climbing FlightAware ADS-B
Mon 10:52:40 PM 51.0403 2.9326 105° East 452 520 36,500  Descending FlightAware UK
Mon 10:52:56 PM 51.0309 2.9842 105° East 491 565 38,000 -143 Climbing FlightAware ADS-B
Mon 10:53:22 PM 51.0143 3.0779 105° East 454 522 36,400 -2,182 Descending FlightAware UK
Mon 10:53:40 PM 51.0030 3.1401 106° East 454 522 36,400 4,571 Level FlightAware UK
Mon 10:53:43 PM 51.0016 3.1491 106° East 493 567 38,000  Climbing FlightAware ADS-B
Mon 10:53:58 PM 50.9918 3.2024 106° East 452 520 36,400 -2,909 Descending FlightAware UK
Mon 10:54:16 PM 50.9808 3.2645 106° East 454 522 36,400 2,824 Level FlightAware UK
Mon 10:54:32 PM 50.9740 3.3040 106° East 488 562 38,000  Climbing FlightAware ADS-B
Mon 10:54:33 PM 50.9698 3.3258 106° East 452 520 36,400 -4,800 Descending FlightAware UK
Mon 10:54:52 PM 50.9586 3.3892 106° East 454 522 36,400  Level FlightAware UK
Mon 10:55:10 PM 50.9476 3.4509 106° East 454 522 36,400 4,800 Level FlightAware UK
Mon 10:55:12 PM 50.9490 3.4420 106° East 487 560 38,000 333 Climbing FlightAware ADS-B
Mon 10:55:28 PM 50.9364 3.5126 106° East 452 520 36,500 -2,647 Descending FlightAware UK
Mon 10:55:46 PM 50.9251 3.5747 106° East 452 520 36,500 3,103 Level FlightAware UK
Mon 10:55:57 PM 50.9210 3.5950 106° East 484 557 38,000  Climbing FlightAware ADS-B
Mon 10:56:16 PM 50.9062 3.6767 106° East 450 518 36,500 -2,432 Descending FlightAware UK
Mon 10:56:34 PM 50.8945 3.7395 106° East 452 520 36,500 4,286 Level FlightAware UK
Mon 10:56:37 PM 50.8960 3.7330 106° East 488 562 38,000 -316 Climbing FlightAware ADS-B
Mon 10:56:53 PM 50.8827 3.8024 106° East 454 522 36,400 -2,909 Descending FlightAware UK
Mon 10:57:10 PM 50.8714 3.8631 106° East 452 520 36,400 4,000 Level FlightAware UK
Mon 10:57:17 PM 50.8700 3.8700 106° East 490 564 38,000 250 Climbing FlightAware ADS-B
Mon 10:57:34 PM 50.8562 3.9464 106° East 456 525 36,500 -2,667 Descending FlightAware UK
Mon 10:57:53 PM 50.8443 4.0101 106° East 458 527 36,400 3,214 Descending FlightAware UK
Mon 10:58:02 PM 50.8410 4.0290 106° East 491 565 38,000  Climbing FlightAware ADS-B
Mon 10:58:17 PM 50.8289 4.0929 106° East 452 520 36,400 -2,727 Descending FlightAware UK
Mon 10:58:35 PM 50.8172 4.1544 107° East 452 520 36,500 3,840 Climbing FlightAware UK
Mon 10:58:42 PM 50.8150 4.1630 107° East 488 562 38,000 -250 Climbing FlightAware ADS-B
Mon 10:58:59 PM 50.8015 4.2358 107° East 452 520 36,400 -2,743 Descending FlightAware UK
Mon 10:59:17 PM 50.7899 4.2973 107° East 450 518 36,400 3,429 Level FlightAware UK
Mon 10:59:27 PM 50.7860 4.3180 107° East 485 558 38,000  Climbing FlightAware ADS-B
Mon 10:59:47 PM 50.7704 4.3988 107° East 450 518 36,400 -2,526 Descending FlightAware UK
Mon 11:00:05 PM 50.7585 4.4597 107° East 452 520 36,400 4,800 Level FlightAware UK
Mon 11:00:07 PM 50.7600 4.4530 107° East 488 562 38,000  Climbing FlightAware ADS-B
Mon 11:00:23 PM 50.7471 4.5208 107° East 456 525 36,400 -2,824 Descending FlightAware UK
Mon 11:00:41 PM 50.7352 4.5811 107° East 456 525 36,400 4,000 Level FlightAware UK
Mon 11:00:47 PM 50.7340 4.5900 107° East 487 560 38,000 250 Climbing FlightAware ADS-B
Mon 11:01:05 PM 50.7193 4.6630 107° East 456 525 36,500 -2,500 Descending FlightAware UK
Mon 11:01:23 PM 50.7077 4.7240 107° East 454 522 36,500 3,333 Level FlightAware UK
Mon 11:01:32 PM 50.7060 4.7350 107° East 481 554 38,000 1,837 Climbing FlightAware ADS-B
Mon 11:02:12 PM 50.6810 4.8620 107° East 481 554 38,000  Level FlightAware ADS-B
Mon 11:02:57 PM 50.6480 5.0290 107° East 480 552 38,000 -212 Level FlightAware ADS-B
Mon 11:03:37 PM 50.6230 5.1560 107° East 481 554 37,700 -1,125 Descending FlightAware ADS-B
Mon 11:04:17 PM 50.5950 5.2970 107° East 483 556 36,500 -1,835 Descending FlightAware ADS-B
Mon 11:05:02 PM 50.5650 5.4470 107° East 483 556 35,100 -1,906 Descending FlightAware ADS-B
Mon 11:05:42 PM 50.5390 5.5740 108° East 480 552 33,800 -1,976 Descending FlightAware ADS-B
Mon 11:06:27 PM 50.5070 5.7290 108° East 473 544 32,300 -1,976 Descending FlightAware ADS-B
Mon 11:07:07 PM 50.4820 5.8540 107° East 466 536 31,000 -1,950 Descending FlightAware ADS-B
Mon 11:07:47 PM 50.4550 5.9840 108° East 461 531 29,700 -1,976 Descending FlightAware ADS-B
Mon 11:08:32 PM 50.4260 6.1240 108° East 456 525 28,200 -1,976 Descending FlightAware ADS-B
Mon 11:09:12 PM 50.4000 6.2480 108° East 452 520 26,900 -1,920 Descending FlightAware ADS-B
Mon 11:09:47 PM 50.3790 6.3470 108° East 448 516 25,800 -2,047 Descending FlightAware ADS-B
Mon 11:10:37 PM 50.3580 6.5160 101° East 432 497 24,000 -2,067 Descending FlightAware ADS-B
Mon 11:11:17 PM 50.3500 6.6390 96° East 425 489 22,700 -1,765 Descending FlightAware ADS-B
Mon 11:12:02 PM 50.3420 6.7690 95° East 413 475 21,500 -1,765 Descending FlightAware ADS-B
Mon 11:12:42 PM 50.3340 6.8880 96° East 408 470 20,200 -1,906 Descending FlightAware ADS-B
Mon 11:13:27 PM 50.3260 7.0130 96° East 403 464 18,800 -1,950 Descending FlightAware ADS-B
Mon 11:14:02 PM 50.3200 7.1080 96° East 402 463 17,600 -2,400 Descending FlightAware ADS-B
Mon 11:14:22 PM 50.3030 7.1740 112° Southeast 409 471 16,600 -1,920 Descending FlightAware ADS-B
Mon 11:15:17 PM 50.2520 7.3060 121° Southeast 391 450 15,200 -1,453 Descending FlightAware ADS-B
Mon 11:15:57 PM 50.2160 7.4030 120° Southeast 371 427 14,300 -1,412 Descending FlightAware ADS-B
Mon 11:16:42 PM 50.1780 7.5070 120° Southeast 361 415 13,200 -1,482 Descending FlightAware ADS-B
Mon 11:17:22 PM 50.1450 7.5940 121° Southeast 351 404 12,200 -1,412 Descending FlightAware ADS-B
Mon 11:18:07 PM 50.1070 7.6940 121° Southeast 332 382 11,200 -847 Descending FlightAware ADS-B
Mon 11:18:47 PM 50.0720 7.7720 125° Southeast 329 379 11,000 -150 Descending FlightAware ADS-B
Mon 11:19:27 PM 50.0390 7.8470 124° Southeast 323 372 11,000  Level FlightAware ADS-B
Mon 11:20:12 PM 50.0020 7.9350 123° Southeast 333 383 11,000  Level FlightAware ADS-B
Mon 11:20:22 PM 49.9990 7.9620 100° East 325 374 11,000  Level FlightAware ADS-B
Mon 11:21:07 PM 50.0200 8.0590 71° East 310 357 11,000  Level FlightAware ADS-B
Mon 11:21:47 PM 50.0410 8.1430 69° East 309 356 11,000  Level FlightAware ADS-B
Mon 11:22:32 PM 50.0630 8.2330 69° East 289 333 11,000  Level FlightAware ADS-B
Mon 11:23:12 PM 50.0800 8.3070 70° East 278 320 11,000  Level FlightAware ADS-B
Mon 11:23:57 PM 50.1010 8.3930 69° East 278 320 11,000 -282 Level FlightAware ADS-B
Mon 11:24:37 PM 50.1190 8.4680 69° East 276 318 10,600 -975 Descending FlightAware ADS-B
Mon 11:25:17 PM 50.1380 8.5460 69° East 274 315 9,700 -1,200 Descending FlightAware ADS-B
Mon 11:25:47 PM 50.1500 8.5950 69° East 272 313 9,200 -1,091 Descending FlightAware ADS-B
Mon 11:26:12 PM 50.1610 8.6420 70° East 268 308 8,700 -1,200 Descending FlightAware ADS-B
Mon 11:26:42 PM 50.1740 8.7000 71° East 264 304 8,100 -700 Descending FlightAware ADS-B
Mon 11:27:12 PM 50.1880 8.7540 68° East 265 305 8,000 -109 Descending FlightAware ADS-B
Mon 11:27:37 PM 50.1980 8.7970 70° East 264 304 8,000  Level FlightAware ADS-B
Mon 11:28:07 PM 50.2100 8.8490 70° East 263 303 8,000  Level FlightAware ADS-B
Mon 11:28:32 PM 50.2210 8.8960 70° East 263 303 8,000  Level FlightAware ADS-B
Mon 11:28:57 PM 50.2320 8.9420 69° East 263 303 8,000  Level FlightAware ADS-B
Mon 11:29:17 PM 50.2390 8.9760 72° East 262 302 8,000  Level FlightAware ADS-B
Mon 11:29:42 PM 50.2510 9.0230 68° East 264 304 8,000  Level FlightAware ADS-B
Mon 11:30:12 PM 50.2630 9.0760 70° East 263 303 8,000 -133 Level FlightAware ADS-B
Mon 11:30:27 PM 50.2670 9.1020 76° East 266 306 7,900 -1,050 Descending FlightAware ADS-B
Mon 11:30:52 PM 50.2530 9.1490 115° Southeast 257 296 7,300 -1,500 Descending FlightAware ADS-B
Mon 11:31:07 PM 50.2360 9.1590 159° South 245 282 6,900 -933 Descending FlightAware ADS-B
Mon 11:31:37 PM 50.2070 9.1410 202° Southwest 217 250 6,600 -764 Descending FlightAware ADS-B
Mon 11:32:02 PM 50.1890 9.1170 220° Southwest 216 249 6,200 -873 Descending FlightAware ADS-B
Mon 11:32:32 PM 50.1670 9.0860 222° Southwest 214 246 5,800 -933 Descending FlightAware ADS-B
Mon 11:32:47 PM 50.1570 9.0660 232° Southwest 209 241 5,500 -900 Descending FlightAware ADS-B
Mon 11:33:12 PM 50.1470 9.0370 242° Southwest 198 228 5,200 -655 Descending FlightAware ADS-B
Mon 11:33:42 PM 50.1370 8.9980 248° West 180 207 4,900 -545 Descending FlightAware ADS-B
Mon 11:34:07 PM 50.1300 8.9670 251° West 162 186 4,700 -545 Descending FlightAware ADS-B
Mon 11:34:37 PM 50.1230 8.9350 251° West 161 185 4,400 -600 Descending FlightAware ADS-B
Mon 11:35:07 PM 50.1150 8.9030 249° West 159 183 4,100 -545 Descending FlightAware ADS-B
Mon 11:35:32 PM 50.1090 8.8760 251° West 160 184 3,900 -436 Descending FlightAware ADS-B
Mon 11:36:02 PM 50.1010 8.8440 249° West 160 184 3,700 -600 Descending FlightAware ADS-B
Mon 11:36:32 PM 50.0930 8.8110 249° West 167 192 3,300 -873 Descending FlightAware ADS-B
Mon 11:36:57 PM 50.0860 8.7800 251° West 173 199 2,900 -1,091 Descending FlightAware ADS-B
Mon 11:37:27 PM 50.0780 8.7450 250° West 174 200 2,300 -982 Descending FlightAware ADS-B
Mon 11:37:52 PM 50.0710 8.7160 249° West 172 198 2,000 -873 Descending FlightAware ADS-B
Mon 11:38:22 PM 50.0630 8.6840 249° West 155 178 1,500 -900 Descending FlightAware ADS-B
Mon 11:38:52 PM 50.0560 8.6540 250° West 147 169 1,100 -800 Descending FlightAware ADS-B
Mon 11:39:07 PM 50.0520 8.6380 249° West 144 166 900 -750 Descending FlightAware ADS-B
Mon 11:39:32 PM 50.0470 8.6150 251° West 144 166 600 -764 Descending FlightAware ADS-B
Mon 11:40:02 PM 50.0400 8.5860 249° West 145 167 200 -800 Descending FlightAware ADS-B

Login

Don't have an account? Register now (free) for customized features, flight alerts, and more!